sensor_id;sensor_type;location;lat;lon;timestamp;pressure;altitude;pressure_sealevel;temperature;humidity
47524;BME280;33253;42.144;25.884;2023-03-03T00:00:06;100809.69;;;5.01;100.00
47524;BME280;33253;42.144;25.884;2023-03-03T00:02:32;100805.13;;;4.97;100.00
47524;BME280;33253;42.144;25.884;2023-03-03T00:04:57;100801.41;;;4.92;100.00
47524;BME280;33253;42.144;25.884;2023-03-03T00:07:23;100798.06;;;4.93;100.00
47524;BME280;33253;42.144;25.884;2023-03-03T00:09:49;100705.03;;;4.38;100.00
47524;BME280;33253;42.144;25.884;2023-03-03T00:12:26;100785.34;;;4.94;100.00
47524;BME280;33253;42.144;25.884;2023-03-03T00:14:53;100783.00;;;4.97;100.00
47524;BME280;33253;42.144;25.884;2023-03-03T00:17:28;100781.84;;;4.92;100.00
47524;BME280;33253;42.144;25.884;2023-03-03T00:19:54;100777.69;;;4.94;100.00
47524;BME280;33253;42.144;25.884;2023-03-03T00:22:29;100778.88;;;4.86;100.00
47524;BME280;33253;42.144;25.884;2023-03-03T00:24:59;100754.25;;;4.88;100.00
47524;BME280;33253;42.144;25.884;2023-03-03T00:27:27;100765.78;;;4.95;100.00
47524;BME280;33253;42.144;25.884;2023-03-03T00:29:55;100750.63;;;4.84;100.00
47524;BME280;33253;42.144;25.884;2023-03-03T00:32:24;100759.78;;;4.94;100.00
47524;BME280;33253;42.144;25.884;2023-03-03T00:34:52;100768.91;;;4.91;100.00
47524;BME280;33253;42.144;25.884;2023-03-03T00:37:33;100708.31;;;4.63;100.00
47524;BME280;33253;42.144;25.884;2023-03-03T00:40:19;100761.84;;;4.86;100.00
47524;BME280;33253;42.144;25.884;2023-03-03T00:42:48;100738.50;;;4.82;100.00
47524;BME280;33253;42.144;25.884;2023-03-03T00:45:28;100758.13;;;4.95;100.00
47524;BME280;33253;42.144;25.884;2023-03-03T00:47:55;100756.13;;;4.91;100.00
47524;BME280;33253;42.144;25.884;2023-03-03T00:50:32;100747.66;;;4.92;100.00
47524;BME280;33253;42.144;25.884;2023-03-03T00:53:18;100701.34;;;4.60;100.00
47524;BME280;33253;42.144;25.884;2023-03-03T00:55:45;100741.47;;;4.88;100.00
47524;BME280;33253;42.144;25.884;2023-03-03T00:58:12;100728.38;;;4.83;100.00
47524;BME280;33253;42.144;25.884;2023-03-03T01:00:38;100742.16;;;4.85;100.00
47524;BME280;33253;42.144;25.884;2023-03-03T01:03:07;100696.53;;;4.65;100.00
47524;BME280;33253;42.144;25.884;2023-03-03T01:05:33;100726.22;;;4.90;100.00
47524;BME280;33253;42.144;25.884;2023-03-03T01:08:00;100721.00;;;4.88;100.00
47524;BME280;33253;42.144;25.884;2023-03-03T01:10:27;100724.16;;;4.84;100.00
47524;BME280;33253;42.144;25.884;2023-03-03T01:12:54;100737.94;;;4.86;100.00
47524;BME280;33253;42.144;25.884;2023-03-03T01:15:22;100689.72;;;4.65;100.00
47524;BME280;33253;42.144;25.884;2023-03-03T01:17:47;100718.06;;;4.82;100.00
47524;BME280;33253;42.144;25.884;2023-03-03T01:20:13;100724.56;;;4.90;100.00
47524;BME280;33253;42.144;25.884;2023-03-03T01:22:39;100709.13;;;4.75;100.00
47524;BME280;33253;42.144;25.884;2023-03-03T01:25:06;100723.25;;;4.83;100.00
47524;BME280;33253;42.144;25.884;2023-03-03T01:27:33;100678.50;;;4.63;100.00
47524;BME280;33253;42.144;25.884;2023-03-03T01:29:59;100717.56;;;4.88;100.00
47524;BME280;33253;42.144;25.884;2023-03-03T01:32:25;100719.81;;;4.83;100.00
47524;BME280;33253;42.144;25.884;2023-03-03T01:34:51;100715.00;;;4.88;100.00
47524;BME280;33253;42.144;25.884;2023-03-03T01:37:17;100727.91;;;4.89;100.00
47524;BME280;33253;42.144;25.884;2023-03-03T01:39:47;100723.66;;;4.90;100.00
47524;BME280;33253;42.144;25.884;2023-03-03T01:42:13;100724.25;;;4.85;100.00
47524;BME280;33253;42.144;25.884;2023-03-03T01:44:40;100727.50;;;4.96;100.00
47524;BME280;33253;42.144;25.884;2023-03-03T01:47:21;100721.31;;;5.06;100.00
47524;BME280;33253;42.144;25.884;2023-03-03T01:49:55;100715.75;;;5.13;100.00
47524;BME280;33253;42.144;25.884;2023-03-03T01:52:26;100709.16;;;5.17;100.00
47524;BME280;33253;42.144;25.884;2023-03-03T01:54:56;100704.25;;;5.20;100.00
47524;BME280;33253;42.144;25.884;2023-03-03T01:57:30;100710.75;;;5.15;100.00
47524;BME280;33253;42.144;25.884;2023-03-03T01:59:58;100704.47;;;5.10;100.00
47524;BME280;33253;42.144;25.884;2023-03-03T02:02:25;100670.22;;;4.94;100.00
47524;BME280;33253;42.144;25.884;2023-03-03T02:04:51;100693.25;;;5.08;100.00
47524;BME280;33253;42.144;25.884;2023-03-03T02:07:18;100704.25;;;5.20;100.00
47524;BME280;33253;42.144;25.884;2023-03-03T02:09:58;100716.25;;;5.21;100.00
47524;BME280;33253;42.144;25.884;2023-03-03T02:12:29;100717.81;;;5.19;100.00
47524;BME280;33253;42.144;25.884;2023-03-03T02:14:56;100715.19;;;5.17;100.00
47524;BME280;33253;42.144;25.884;2023-03-03T02:17:22;100720.47;;;5.21;100.00
47524;BME280;33253;42.144;25.884;2023-03-03T02:19:57;100726.97;;;5.29;100.00
47524;BME280;33253;42.144;25.884;2023-03-03T02:22:45;100726.66;;;5.38;100.00
47524;BME280;33253;42.144;25.884;2023-03-03T02:25:17;100727.91;;;5.44;100.00
47524;BME280;33253;42.144;25.884;2023-03-03T02:27:47;100725.84;;;5.52;100.00
47524;BME280;33253;42.144;25.884;2023-03-03T02:30:15;100728.78;;;5.58;100.00
47524;BME280;33253;42.144;25.884;2023-03-03T02:32:41;100716.38;;;5.51;100.00
47524;BME280;33253;42.144;25.884;2023-03-03T02:37:57;100720.06;;;5.70;100.00
47524;BME280;33253;42.144;25.884;2023-03-03T02:40:24;100723.72;;;5.73;100.00
47524;BME280;33253;42.144;25.884;2023-03-03T02:42:52;100667.53;;;5.48;100.00
47524;BME280;33253;42.144;25.884;2023-03-03T02:45:20;100702.31;;;5.73;100.00
47524;BME280;33253;42.144;25.884;2023-03-03T02:47:49;100689.47;;;5.58;100.00
47524;BME280;33253;42.144;25.884;2023-03-03T02:50:15;100663.34;;;5.35;100.00
47524;BME280;33253;42.144;25.884;2023-03-03T02:52:41;100715.84;;;5.57;100.00
47524;BME280;33253;42.144;25.884;2023-03-03T02:55:07;100717.47;;;5.55;100.00
47524;BME280;33253;42.144;25.884;2023-03-03T02:57:32;100705.06;;;5.47;100.00
47524;BME280;33253;42.144;25.884;2023-03-03T02:59:58;100681.44;;;5.38;100.00
47524;BME280;33253;42.144;25.884;2023-03-03T03:02:23;100688.16;;;5.36;100.00
47524;BME280;33253;42.144;25.884;2023-03-03T03:04:48;100714.78;;;5.53;100.00
47524;BME280;33253;42.144;25.884;2023-03-03T03:07:14;100721.56;;;5.66;100.00
47524;BME280;33253;42.144;25.884;2023-03-03T03:09:40;100672.41;;;5.43;100.00
47524;BME280;33253;42.144;25.884;2023-03-03T03:12:06;100685.81;;;5.54;100.00
47524;BME280;33253;42.144;25.884;2023-03-03T03:14:32;100721.59;;;5.81;100.00
47524;BME280;33253;42.144;25.884;2023-03-03T03:16:58;100671.44;;;5.56;100.00
47524;BME280;33253;42.144;25.884;2023-03-03T03:19:23;100724.41;;;5.86;100.00
47524;BME280;33253;42.144;25.884;2023-03-03T03:21:48;100677.91;;;5.64;100.00
47524;BME280;33253;42.144;25.884;2023-03-03T03:24:14;100728.88;;;5.88;100.00
47524;BME280;33253;42.144;25.884;2023-03-03T03:26:39;100720.81;;;5.82;100.00
47524;BME280;33253;42.144;25.884;2023-03-03T03:29:05;100726.19;;;5.87;100.00
47524;BME280;33253;42.144;25.884;2023-03-03T03:31:31;100723.53;;;5.85;100.00
47524;BME280;33253;42.144;25.884;2023-03-03T03:33:57;100726.59;;;5.79;100.00
47524;BME280;33253;42.144;25.884;2023-03-03T03:36:24;100720.44;;;5.76;100.00
47524;BME280;33253;42.144;25.884;2023-03-03T03:38:51;100710.19;;;5.76;100.00
47524;BME280;33253;42.144;25.884;2023-03-03T03:41:16;100715.19;;;5.74;100.00
47524;BME280;33253;42.144;25.884;2023-03-03T03:43:42;100589.09;;;5.07;100.00
47524;BME280;33253;42.144;25.884;2023-03-03T03:46:07;100706.03;;;5.78;100.00
47524;BME280;33253;42.144;25.884;2023-03-03T03:48:33;100693.63;;;5.71;100.00
47524;BME280;33253;42.144;25.884;2023-03-03T03:50:59;100691.91;;;5.70;100.00
47524;BME280;33253;42.144;25.884;2023-03-03T03:53:24;100700.81;;;5.76;100.00
47524;BME280;33253;42.144;25.884;2023-03-03T03:55:50;100664.19;;;5.49;100.00
47524;BME280;33253;42.144;25.884;2023-03-03T03:58:16;100691.78;;;5.68;100.00
47524;BME280;33253;42.144;25.884;2023-03-03T04:00:43;100698.13;;;5.60;100.00
47524;BME280;33253;42.144;25.884;2023-03-03T04:03:09;100694.66;;;5.59;100.00
47524;BME280;33253;42.144;25.884;2023-03-03T04:05:35;100632.19;;;5.14;100.00
47524;BME280;33253;42.144;25.884;2023-03-03T04:08:00;100696.09;;;5.41;100.00
47524;BME280;33253;42.144;25.884;2023-03-03T04:10:26;100670.34;;;5.24;100.00
47524;BME280;33253;42.144;25.884;2023-03-03T04:12:51;100680.44;;;5.21;100.00
47524;BME280;33253;42.144;25.884;2023-03-03T04:15:17;100646.25;;;4.92;100.00
47524;BME280;33253;42.144;25.884;2023-03-03T04:17:42;100636.78;;;4.91;100.00
47524;BME280;33253;42.144;25.884;2023-03-03T04:20:10;100690.47;;;5.18;100.00
47524;BME280;33253;42.144;25.884;2023-03-03T04:22:37;100692.84;;;5.15;100.00
47524;BME280;33253;42.144;25.884;2023-03-03T04:25:03;100695.81;;;5.08;100.00
47524;BME280;33253;42.144;25.884;2023-03-03T04:27:32;100688.59;;;5.02;100.00
47524;BME280;33253;42.144;25.884;2023-03-03T04:29:58;100695.59;;;5.05;100.00
47524;BME280;33253;42.144;25.884;2023-03-03T04:32:24;100693.84;;;5.04;100.00
47524;BME280;33253;42.144;25.884;2023-03-03T04:34:49;100638.09;;;4.71;100.00
47524;BME280;33253;42.144;25.884;2023-03-03T04:37:15;100690.28;;;5.01;100.00
47524;BME280;33253;42.144;25.884;2023-03-03T04:39:40;100695.50;;;5.03;100.00
47524;BME280;33253;42.144;25.884;2023-03-03T04:42:06;100701.41;;;5.02;100.00
47524;BME280;33253;42.144;25.884;2023-03-03T04:44:31;100695.31;;;5.00;100.00
47524;BME280;33253;42.144;25.884;2023-03-03T04:46:56;100688.22;;;4.96;100.00
47524;BME280;33253;42.144;25.884;2023-03-03T04:49:22;100692.47;;;4.95;100.00
47524;BME280;33253;42.144;25.884;2023-03-03T04:51:47;100676.56;;;4.86;100.00
47524;BME280;33253;42.144;25.884;2023-03-03T04:54:13;100671.22;;;4.83;100.00
47524;BME280;33253;42.144;25.884;2023-03-03T04:56:38;100643.22;;;4.58;100.00
47524;BME280;33253;42.144;25.884;2023-03-03T04:59:04;100683.72;;;4.78;100.00
47524;BME280;33253;42.144;25.884;2023-03-03T05:01:29;100693.94;;;4.78;100.00
47524;BME280;33253;42.144;25.884;2023-03-03T05:03:54;100638.00;;;4.43;100.00
47524;BME280;33253;42.144;25.884;2023-03-03T05:06:20;100699.97;;;4.79;100.00
47524;BME280;33253;42.144;25.884;2023-03-03T05:08:45;100700.16;;;4.82;100.00
47524;BME280;33253;42.144;25.884;2023-03-03T05:11:11;100681.47;;;4.83;100.00
47524;BME280;33253;42.144;25.884;2023-03-03T05:13:38;100690.41;;;4.90;100.00
47524;BME280;33253;42.144;25.884;2023-03-03T05:16:04;100692.56;;;4.83;100.00
47524;BME280;33253;42.144;25.884;2023-03-03T05:18:29;100671.75;;;4.77;100.00
47524;BME280;33253;42.144;25.884;2023-03-03T05:20:55;100697.03;;;4.86;100.00
47524;BME280;33253;42.144;25.884;2023-03-03T05:23:21;100687.44;;;4.83;100.00
47524;BME280;33253;42.144;25.884;2023-03-03T05:25:47;100698.50;;;4.82;100.00
47524;BME280;33253;42.144;25.884;2023-03-03T05:28:14;100696.81;;;4.83;100.00
47524;BME280;33253;42.144;25.884;2023-03-03T05:30:40;100595.16;;;4.25;100.00
47524;BME280;33253;42.144;25.884;2023-03-03T05:33:05;100699.47;;;4.84;100.00
47524;BME280;33253;42.144;25.884;2023-03-03T05:35:31;100691.50;;;4.80;100.00
47524;BME280;33253;42.144;25.884;2023-03-03T05:37:57;100693.94;;;4.92;100.00
47524;BME280;33253;42.144;25.884;2023-03-03T05:40:23;100696.41;;;5.04;100.00
47524;BME280;33253;42.144;25.884;2023-03-03T05:42:49;100637.19;;;4.70;100.00
47524;BME280;33253;42.144;25.884;2023-03-03T05:45:14;100704.56;;;5.11;100.00
47524;BME280;33253;42.144;25.884;2023-03-03T05:47:40;100698.75;;;5.14;100.00
47524;BME280;33253;42.144;25.884;2023-03-03T05:50:05;100705.44;;;5.12;100.00
47524;BME280;33253;42.144;25.884;2023-03-03T05:52:31;100659.59;;;4.88;100.00
47524;BME280;33253;42.144;25.884;2023-03-03T05:54:56;100710.94;;;5.18;100.00
47524;BME280;33253;42.144;25.884;2023-03-03T05:57:22;100713.78;;;5.23;100.00
47524;BME280;33253;42.144;25.884;2023-03-03T05:59:49;100710.63;;;5.27;100.00
47524;BME280;33253;42.144;25.884;2023-03-03T06:02:14;100716.91;;;5.32;100.00
47524;BME280;33253;42.144;25.884;2023-03-03T06:04:40;100710.91;;;5.31;100.00
47524;BME280;33253;42.144;25.884;2023-03-03T06:07:05;100709.66;;;5.25;100.00
47524;BME280;33253;42.144;25.884;2023-03-03T06:09:31;100710.84;;;5.16;100.00
47524;BME280;33253;42.144;25.884;2023-03-03T06:11:57;100708.97;;;5.14;100.00
47524;BME280;33253;42.144;25.884;2023-03-03T06:14:22;100708.13;;;5.00;100.00
47524;BME280;33253;42.144;25.884;2023-03-03T06:16:48;100657.56;;;4.69;100.00
47524;BME280;33253;42.144;25.884;2023-03-03T06:19:14;100712.44;;;5.01;100.00
47524;BME280;33253;42.144;25.884;2023-03-03T06:21:40;100704.88;;;5.02;100.00
47524;BME280;33253;42.144;25.884;2023-03-03T06:24:06;100715.00;;;5.01;100.00
47524;BME280;33253;42.144;25.884;2023-03-03T06:26:31;100703.09;;;5.01;100.00
47524;BME280;33253;42.144;25.884;2023-03-03T06:28:57;100705.44;;;5.12;100.00
47524;BME280;33253;42.144;25.884;2023-03-03T06:31:26;100708.38;;;5.18;100.00
47524;BME280;33253;42.144;25.884;2023-03-03T06:33:52;100693.16;;;5.06;100.00
47524;BME280;33253;42.144;25.884;2023-03-03T06:36:18;100703.09;;;5.15;100.00
47524;BME280;33253;42.144;25.884;2023-03-03T06:38:44;100676.94;;;4.92;100.00
47524;BME280;33253;42.144;25.884;2023-03-03T06:41:10;100712.41;;;5.14;100.00
47524;BME280;33253;42.144;25.884;2023-03-03T06:43:37;100709.59;;;5.10;100.00
47524;BME280;33253;42.144;25.884;2023-03-03T06:46:04;100669.06;;;4.89;100.00
47524;BME280;33253;42.144;25.884;2023-03-03T06:48:31;100701.41;;;5.02;100.00
47524;BME280;33253;42.144;25.884;2023-03-03T06:50:59;100707.19;;;5.13;100.00
47524;BME280;33253;42.144;25.884;2023-03-03T06:53:25;100706.34;;;5.12;100.00
47524;BME280;33253;42.144;25.884;2023-03-03T06:55:51;100669.16;;;4.91;100.00
47524;BME280;33253;42.144;25.884;2023-03-03T06:58:19;100705.91;;;5.19;100.00
47524;BME280;33253;42.144;25.884;2023-03-03T07:00:59;100679.06;;;4.99;100.00
47524;BME280;33253;42.144;25.884;2023-03-03T07:03:27;100713.19;;;5.27;100.00
47524;BME280;33253;42.144;25.884;2023-03-03T07:05:56;100712.78;;;5.34;100.00
47524;BME280;33253;42.144;25.884;2023-03-03T07:08:22;100713.34;;;5.43;100.00
47524;BME280;33253;42.144;25.884;2023-03-03T07:10:49;100707.09;;;5.53;100.00
47524;BME280;33253;42.144;25.884;2023-03-03T07:13:19;100692.72;;;5.55;100.00
47524;BME280;33253;42.144;25.884;2023-03-03T07:15:45;100702.25;;;5.58;100.00
47524;BME280;33253;42.144;25.884;2023-03-03T07:18:22;100700.41;;;5.55;100.00
47524;BME280;33253;42.144;25.884;2023-03-03T07:20:49;100701.28;;;5.56;100.00
47524;BME280;33253;42.144;25.884;2023-03-03T07:23:25;100703.34;;;5.61;100.00
47524;BME280;33253;42.144;25.884;2023-03-03T07:25:51;100696.34;;;5.59;100.00
47524;BME280;33253;42.144;25.884;2023-03-03T07:28:24;100695.81;;;5.64;100.00
47524;BME280;33253;42.144;25.884;2023-03-03T07:30:51;100693.84;;;5.74;100.00
47524;BME280;33253;42.144;25.884;2023-03-03T07:33:23;100699.13;;;5.77;100.00
47524;BME280;33253;42.144;25.884;2023-03-03T07:35:49;100693.63;;;5.71;100.00
47524;BME280;33253;42.144;25.884;2023-03-03T07:38:22;100693.06;;;5.75;100.00
47524;BME280;33253;42.144;25.884;2023-03-03T07:40:49;100698.91;;;5.87;100.00
47524;BME280;33253;42.144;25.884;2023-03-03T07:46:00;100696.44;;;5.89;100.00
47524;BME280;33253;42.144;25.884;2023-03-03T07:48:34;100695.44;;;5.87;100.00
47524;BME280;33253;42.144;25.884;2023-03-03T07:51:02;100694.72;;;5.89;100.00
47524;BME280;33253;42.144;25.884;2023-03-03T07:53:29;100697.06;;;5.85;100.00
47524;BME280;33253;42.144;25.884;2023-03-03T07:55:58;100686.53;;;5.80;100.00
47524;BME280;33253;42.144;25.884;2023-03-03T07:58:35;100679.91;;;5.83;100.00
47524;BME280;33253;42.144;25.884;2023-03-03T08:03:45;100678.28;;;5.86;100.00
47524;BME280;33253;42.144;25.884;2023-03-03T08:08:59;100683.00;;;5.93;100.00
47524;BME280;33253;42.144;25.884;2023-03-03T08:11:26;100681.50;;;5.96;100.00
47524;BME280;33253;42.144;25.884;2023-03-03T08:13:51;100681.41;;;5.95;100.00
47524;BME280;33253;42.144;25.884;2023-03-03T08:16:20;100680.13;;;6.02;100.00
47524;BME280;33253;42.144;25.884;2023-03-03T08:18:49;100677.13;;;6.09;100.00
47524;BME280;33253;42.144;25.884;2023-03-03T08:21:24;100680.84;;;6.14;100.00
47524;BME280;33253;42.144;25.884;2023-03-03T08:23:50;100684.31;;;6.14;100.00
47524;BME280;33253;42.144;25.884;2023-03-03T08:26:20;100686.88;;;6.14;100.00
47524;BME280;33253;42.144;25.884;2023-03-03T08:28:46;100687.47;;;6.10;100.00
47524;BME280;33253;42.144;25.884;2023-03-03T08:31:12;100686.22;;;6.04;100.00
47524;BME280;33253;42.144;25.884;2023-03-03T08:33:37;100687.66;;;6.13;100.00
47524;BME280;33253;42.144;25.884;2023-03-03T08:36:03;100683.31;;;6.12;100.00
47524;BME280;33253;42.144;25.884;2023-03-03T08:38:28;100685.09;;;6.13;100.00
47524;BME280;33253;42.144;25.884;2023-03-03T08:40:54;100679.88;;;6.12;100.00
47524;BME280;33253;42.144;25.884;2023-03-03T08:43:19;100680.84;;;6.14;100.00
47524;BME280;33253;42.144;25.884;2023-03-03T08:45:50;100680.41;;;6.21;100.00
47524;BME280;33253;42.144;25.884;2023-03-03T08:48:16;100682.69;;;6.31;100.00
47524;BME280;33253;42.144;25.884;2023-03-03T08:50:41;100680.69;;;6.41;100.00
47524;BME280;33253;42.144;25.884;2023-03-03T08:53:07;100678.19;;;6.42;100.00
47524;BME280;33253;42.144;25.884;2023-03-03T08:55:33;100673.78;;;6.40;100.00
47524;BME280;33253;42.144;25.884;2023-03-03T08:57:59;100674.63;;;6.40;100.00
47524;BME280;33253;42.144;25.884;2023-03-03T09:00:24;100672.19;;;6.42;100.00
47524;BME280;33253;42.144;25.884;2023-03-03T09:02:52;100664.22;;;6.52;100.00
47524;BME280;33253;42.144;25.884;2023-03-03T09:05:17;100666.41;;;6.61;100.00
47524;BME280;33253;42.144;25.884;2023-03-03T09:07:44;100668.69;;;6.71;100.00
47524;BME280;33253;42.144;25.884;2023-03-03T09:10:10;100669.81;;;6.76;100.00
47524;BME280;33253;42.144;25.884;2023-03-03T09:12:37;100672.88;;;6.69;100.00
47524;BME280;33253;42.144;25.884;2023-03-03T09:15:23;100664.91;;;6.64;100.00
47524;BME280;33253;42.144;25.884;2023-03-03T09:17:49;100668.91;;;6.59;100.00
47524;BME280;33253;42.144;25.884;2023-03-03T09:20:23;100658.72;;;6.61;100.00
47524;BME280;33253;42.144;25.884;2023-03-03T09:22:51;100653.94;;;6.52;100.00
47524;BME280;33253;42.144;25.884;2023-03-03T09:25:37;100664.28;;;6.54;100.00
47524;BME280;33253;42.144;25.884;2023-03-03T09:28:02;100649.44;;;6.63;100.00
47524;BME280;33253;42.144;25.884;2023-03-03T09:30:38;100652.41;;;6.71;100.00
47524;BME280;33253;42.144;25.884;2023-03-03T09:33:23;100654.53;;;6.78;100.00
47524;BME280;33253;42.144;25.884;2023-03-03T09:38:33;100651.13;;;6.79;100.00
47524;BME280;33253;42.144;25.884;2023-03-03T09:56:34;100637.09;;;6.72;100.00
47524;BME280;33253;42.144;25.884;2023-03-03T09:59:26;100635.44;;;6.58;100.00
47524;BME280;33253;42.144;25.884;2023-03-03T10:01:52;100630.06;;;6.53;100.00
47524;BME280;33253;42.144;25.884;2023-03-03T10:12:32;100631.69;;;6.68;100.00
47524;BME280;33253;42.144;25.884;2023-03-03T10:15:10;100635.25;;;6.70;100.00
47524;BME280;33253;42.144;25.884;2023-03-03T10:32:53;100609.34;;;6.82;100.00
47524;BME280;33253;42.144;25.884;2023-03-03T10:35:34;100605.06;;;6.80;100.00
47524;BME280;33253;42.144;25.884;2023-03-03T10:50:58;100595.06;;;6.70;100.00
47524;BME280;33253;42.144;25.884;2023-03-03T10:53:33;100583.47;;;6.77;100.00
47524;BME280;33253;42.144;25.884;2023-03-03T11:11:52;100580.94;;;7.10;100.00
47524;BME280;33253;42.144;25.884;2023-03-03T11:14:26;100578.53;;;7.13;100.00
47524;BME280;33253;42.144;25.884;2023-03-03T11:24:47;100574.59;;;6.87;100.00
47524;BME280;33253;42.144;25.884;2023-03-03T11:27:21;100580.59;;;6.87;100.00
47524;BME280;33253;42.144;25.884;2023-03-03T11:40:27;100570.72;;;7.11;100.00
47524;BME280;33253;42.144;25.884;2023-03-03T11:45:43;100556.84;;;6.91;100.00
47524;BME280;33253;42.144;25.884;2023-03-03T11:48:31;100556.13;;;6.94;100.00
47524;BME280;33253;42.144;25.884;2023-03-03T11:51:11;100553.16;;;6.86;100.00
47524;BME280;33253;42.144;25.884;2023-03-03T11:53:49;100552.59;;;6.75;100.00
47524;BME280;33253;42.144;25.884;2023-03-03T11:59:04;100549.13;;;6.75;100.00
47524;BME280;33253;42.144;25.884;2023-03-03T12:01:43;100542.97;;;6.71;100.00
47524;BME280;33253;42.144;25.884;2023-03-03T12:04:21;100539.22;;;6.81;100.00
47524;BME280;33253;42.144;25.884;2023-03-03T12:17:22;100534.41;;;6.87;100.00
47524;BME280;33253;42.144;25.884;2023-03-03T12:20:02;100536.63;;;6.81;100.00
47524;BME280;33253;42.144;25.884;2023-03-03T12:22:33;100538.34;;;6.80;100.00
47524;BME280;33253;42.144;25.884;2023-03-03T12:25:02;100534.72;;;6.77;100.00
47524;BME280;33253;42.144;25.884;2023-03-03T12:40:08;100549.97;;;6.90;100.00
47524;BME280;33253;42.144;25.884;2023-03-03T12:45:35;100540.19;;;7.00;100.00
47524;BME280;33253;42.144;25.884;2023-03-03T12:48:07;100542.81;;;7.01;100.00
47524;BME280;33253;42.144;25.884;2023-03-03T13:06:33;100533.94;;;6.78;100.00
47524;BME280;33253;42.144;25.884;2023-03-03T13:09:10;100538.47;;;6.84;100.00
47524;BME280;33253;42.144;25.884;2023-03-03T13:11:44;100534.00;;;6.96;100.00
47524;BME280;33253;42.144;25.884;2023-03-03T13:16:44;100536.41;;;7.09;100.00
47524;BME280;33253;42.144;25.884;2023-03-03T13:19:48;100530.47;;;7.10;100.00
47524;BME280;33253;42.144;25.884;2023-03-03T13:22:22;100527.19;;;7.13;100.00
47524;BME280;33253;42.144;25.884;2023-03-03T13:27:31;100531.97;;;7.23;100.00
47524;BME280;33253;42.144;25.884;2023-03-03T13:30:01;100533.91;;;7.27;100.00
47524;BME280;33253;42.144;25.884;2023-03-03T13:32:34;100531.19;;;7.24;100.00
47524;BME280;33253;42.144;25.884;2023-03-03T13:37:31;100523.13;;;7.35;100.00
47524;BME280;33253;42.144;25.884;2023-03-03T13:42:58;100519.00;;;7.55;100.00
47524;BME280;33253;42.144;25.884;2023-03-03T13:47:55;100521.38;;;7.34;100.00
47524;BME280;33253;42.144;25.884;2023-03-03T13:53:14;100522.50;;;7.22;100.00
47524;BME280;33253;42.144;25.884;2023-03-03T13:58:47;100516.03;;;7.29;100.00
47524;BME280;33253;42.144;25.884;2023-03-03T14:01:21;100509.91;;;7.27;100.00
47524;BME280;33253;42.144;25.884;2023-03-03T14:06:36;100502.75;;;7.38;100.00
47524;BME280;33253;42.144;25.884;2023-03-03T14:09:21;100510.22;;;7.33;100.00
47524;BME280;33253;42.144;25.884;2023-03-03T14:15:02;100506.31;;;7.23;100.00
47524;BME280;33253;42.144;25.884;2023-03-03T14:17:31;100508.31;;;7.29;100.00
47524;BME280;33253;42.144;25.884;2023-03-03T14:20:02;100507.59;;;7.32;100.00
47524;BME280;33253;42.144;25.884;2023-03-03T14:22:41;100509.44;;;7.34;100.00
47524;BME280;33253;42.144;25.884;2023-03-03T14:25:12;100513.38;;;7.11;100.00
47524;BME280;33253;42.144;25.884;2023-03-03T14:35:32;100502.16;;;6.92;100.00
47524;BME280;33253;42.144;25.884;2023-03-03T14:38:01;100499.13;;;7.00;100.00
47524;BME280;33253;42.144;25.884;2023-03-03T14:40:32;100502.00;;;7.06;100.00
47524;BME280;33253;42.144;25.884;2023-03-03T14:42:59;100514.59;;;7.01;100.00
47524;BME280;33253;42.144;25.884;2023-03-03T14:47:56;100514.34;;;6.63;100.00
47524;BME280;33253;42.144;25.884;2023-03-03T14:50:38;100504.16;;;6.65;100.00
47524;BME280;33253;42.144;25.884;2023-03-03T14:53:09;100506.91;;;6.68;100.00
47524;BME280;33253;42.144;25.884;2023-03-03T14:55:36;100506.56;;;6.62;100.00
47524;BME280;33253;42.144;25.884;2023-03-03T14:58:02;100505.91;;;6.50;100.00
47524;BME280;33253;42.144;25.884;2023-03-03T15:00:31;100508.41;;;6.48;100.00
47524;BME280;33253;42.144;25.884;2023-03-03T15:02:59;100497.28;;;6.32;100.00
47524;BME280;33253;42.144;25.884;2023-03-03T15:05:26;100498.34;;;6.36;100.00
47524;BME280;33253;42.144;25.884;2023-03-03T15:10:38;100497.63;;;6.39;100.00
47524;BME280;33253;42.144;25.884;2023-03-03T15:18:29;100501.50;;;6.47;100.00
47524;BME280;33253;42.144;25.884;2023-03-03T15:21:06;100509.59;;;6.55;100.00
47524;BME280;33253;42.144;25.884;2023-03-03T15:23:43;100504.78;;;6.61;100.00
47524;BME280;33253;42.144;25.884;2023-03-03T15:29:07;100508.41;;;6.48;100.00
47524;BME280;33253;42.144;25.884;2023-03-03T15:31:40;100516.16;;;6.50;100.00
47524;BME280;33253;42.144;25.884;2023-03-03T15:41:56;100512.22;;;6.40;100.00
47524;BME280;33253;42.144;25.884;2023-03-03T15:44:43;100514.06;;;6.42;100.00
47524;BME280;33253;42.144;25.884;2023-03-03T16:09:07;100540.50;;;6.41;100.00
47524;BME280;33253;42.144;25.884;2023-03-03T16:34:59;100554.84;;;6.69;100.00
47524;BME280;33253;42.144;25.884;2023-03-03T16:42:25;100567.75;;;6.71;100.00
47524;BME280;33253;42.144;25.884;2023-03-03T16:47:40;100576.09;;;6.83;100.00
47524;BME280;33253;42.144;25.884;2023-03-03T16:55:26;100581.13;;;6.82;100.00
47524;BME280;33253;42.144;25.884;2023-03-03T16:58:04;100581.84;;;6.79;100.00
47524;BME280;33253;42.144;25.884;2023-03-03T17:05:53;100580.97;;;6.78;100.00
47524;BME280;33253;42.144;25.884;2023-03-03T17:16:04;100591.66;;;7.03;100.00
47524;BME280;33253;42.144;25.884;2023-03-03T17:18:38;100591.19;;;7.10;100.00
47524;BME280;33253;42.144;25.884;2023-03-03T17:31:52;100614.69;;;7.01;100.00